sensor_id;sensor_type;location;lat;lon;timestamp;temperature;humidity
9057;DHT22;4563;54.756;9.400;2024-02-26T00:01:05;6.70;84.50
9057;DHT22;4563;54.756;9.400;2024-02-26T00:03:33;6.70;84.50
9057;DHT22;4563;54.756;9.400;2024-02-26T00:06:01;6.70;84.50
9057;DHT22;4563;54.756;9.400;2024-02-26T00:08:28;6.70;84.50
9057;DHT22;4563;54.756;9.400;2024-02-26T00:10:55;6.70;84.50
9057;DHT22;4563;54.756;9.400;2024-02-26T00:13:21;6.70;84.50
9057;DHT22;4563;54.756;9.400;2024-02-26T00:15:48;6.70;84.50
9057;DHT22;4563;54.756;9.400;2024-02-26T00:18:15;6.70;84.60
9057;DHT22;4563;54.756;9.400;2024-02-26T00:20:43;6.70;84.50
9057;DHT22;4563;54.756;9.400;2024-02-26T00:23:10;6.70;84.60
9057;DHT22;4563;54.756;9.400;2024-02-26T00:25:37;6.70;84.60
9057;DHT22;4563;54.756;9.400;2024-02-26T00:28:04;6.70;84.60
9057;DHT22;4563;54.756;9.400;2024-02-26T00:30:31;6.80;84.70
9057;DHT22;4563;54.756;9.400;2024-02-26T00:32:57;6.70;84.60
9057;DHT22;4563;54.756;9.400;2024-02-26T00:35:23;6.70;84.60
9057;DHT22;4563;54.756;9.400;2024-02-26T00:37:52;6.70;84.60
9057;DHT22;4563;54.756;9.400;2024-02-26T00:40:18;6.70;84.60
9057;DHT22;4563;54.756;9.400;2024-02-26T00:42:45;6.70;84.60
9057;DHT22;4563;54.756;9.400;2024-02-26T00:45:13;6.70;84.60
9057;DHT22;4563;54.756;9.400;2024-02-26T00:47:41;6.70;84.60
9057;DHT22;4563;54.756;9.400;2024-02-26T00:50:10;6.70;84.60
9057;DHT22;4563;54.756;9.400;2024-02-26T00:52:37;6.70;84.60
9057;DHT22;4563;54.756;9.400;2024-02-26T00:55:06;6.70;84.60
9057;DHT22;4563;54.756;9.400;2024-02-26T00:57:33;6.70;84.60
9057;DHT22;4563;54.756;9.400;2024-02-26T01:00:00;6.70;84.60
9057;DHT22;4563;54.756;9.400;2024-02-26T01:02:27;6.70;84.60
9057;DHT22;4563;54.756;9.400;2024-02-26T01:04:53;6.60;84.50
9057;DHT22;4563;54.756;9.400;2024-02-26T01:07:20;6.60;84.50
9057;DHT22;4563;54.756;9.400;2024-02-26T01:09:47;6.60;84.50
9057;DHT22;4563;54.756;9.400;2024-02-26T01:12:15;6.60;84.50
9057;DHT22;4563;54.756;9.400;2024-02-26T01:14:42;6.60;84.40
9057;DHT22;4563;54.756;9.400;2024-02-26T01:17:09;6.50;84.30
9057;DHT22;4563;54.756;9.400;2024-02-26T01:19:35;6.50;84.30
9057;DHT22;4563;54.756;9.400;2024-02-26T01:22:02;6.50;84.30
9057;DHT22;4563;54.756;9.400;2024-02-26T01:24:29;6.50;84.30
9057;DHT22;4563;54.756;9.400;2024-02-26T01:26:56;6.50;84.20
9057;DHT22;4563;54.756;9.400;2024-02-26T01:29:24;6.40;84.10
9057;DHT22;4563;54.756;9.400;2024-02-26T01:31:51;6.40;84.10
9057;DHT22;4563;54.756;9.400;2024-02-26T01:34:18;6.30;84.00
9057;DHT22;4563;54.756;9.400;2024-02-26T01:36:44;6.40;84.10
9057;DHT22;4563;54.756;9.400;2024-02-26T01:39:11;6.30;84.00
9057;DHT22;4563;54.756;9.400;2024-02-26T01:41:39;6.30;84.00
9057;DHT22;4563;54.756;9.400;2024-02-26T01:44:06;6.30;84.00
9057;DHT22;4563;54.756;9.400;2024-02-26T01:46:35;6.20;83.90
9057;DHT22;4563;54.756;9.400;2024-02-26T01:49:02;6.20;83.90
9057;DHT22;4563;54.756;9.400;2024-02-26T01:51:30;6.20;83.90
9057;DHT22;4563;54.756;9.400;2024-02-26T01:53:58;6.10;83.80
9057;DHT22;4563;54.756;9.400;2024-02-26T01:56:26;6.20;83.90
9057;DHT22;4563;54.756;9.400;2024-02-26T01:58:56;6.10;83.80
9057;DHT22;4563;54.756;9.400;2024-02-26T02:01:25;6.10;83.90
9057;DHT22;4563;54.756;9.400;2024-02-26T02:03:56;6.10;83.90
9057;DHT22;4563;54.756;9.400;2024-02-26T02:06:24;6.10;83.90
9057;DHT22;4563;54.756;9.400;2024-02-26T02:08:51;6.00;83.80
9057;DHT22;4563;54.756;9.400;2024-02-26T02:11:18;6.00;83.80
9057;DHT22;4563;54.756;9.400;2024-02-26T02:13:45;6.00;83.80
9057;DHT22;4563;54.756;9.400;2024-02-26T02:16:12;6.00;83.80
9057;DHT22;4563;54.756;9.400;2024-02-26T02:18:39;5.90;83.80
9057;DHT22;4563;54.756;9.400;2024-02-26T02:21:07;5.90;83.80
9057;DHT22;4563;54.756;9.400;2024-02-26T02:23:34;5.90;83.80
9057;DHT22;4563;54.756;9.400;2024-02-26T02:26:01;5.90;83.90
9057;DHT22;4563;54.756;9.400;2024-02-26T02:28:28;5.90;84.50
9057;DHT22;4563;54.756;9.400;2024-02-26T02:30:55;5.90;83.80
9057;DHT22;4563;54.756;9.400;2024-02-26T02:33:23;5.80;83.70
9057;DHT22;4563;54.756;9.400;2024-02-26T02:35:50;5.80;83.70
9057;DHT22;4563;54.756;9.400;2024-02-26T02:38:21;5.80;83.70
9057;DHT22;4563;54.756;9.400;2024-02-26T02:40:49;5.80;83.70
9057;DHT22;4563;54.756;9.400;2024-02-26T02:43:16;5.80;83.80
9057;DHT22;4563;54.756;9.400;2024-02-26T02:45:42;5.70;83.60
9057;DHT22;4563;54.756;9.400;2024-02-26T02:48:10;5.70;83.70
9057;DHT22;4563;54.756;9.400;2024-02-26T02:50:37;5.70;83.70
9057;DHT22;4563;54.756;9.400;2024-02-26T02:53:04;5.70;83.70
9057;DHT22;4563;54.756;9.400;2024-02-26T02:55:32;5.70;83.60
9057;DHT22;4563;54.756;9.400;2024-02-26T02:57:59;5.70;83.60
9057;DHT22;4563;54.756;9.400;2024-02-26T03:00:26;5.70;83.70
9057;DHT22;4563;54.756;9.400;2024-02-26T03:02:53;5.70;83.70
9057;DHT22;4563;54.756;9.400;2024-02-26T03:05:19;5.70;84.40
9057;DHT22;4563;54.756;9.400;2024-02-26T03:07:46;5.70;83.70
9057;DHT22;4563;54.756;9.400;2024-02-26T03:10:13;5.70;83.70
9057;DHT22;4563;54.756;9.400;2024-02-26T03:12:41;5.70;83.70
9057;DHT22;4563;54.756;9.400;2024-02-26T03:15:09;5.70;83.70
9057;DHT22;4563;54.756;9.400;2024-02-26T03:17:37;5.70;83.80
9057;DHT22;4563;54.756;9.400;2024-02-26T03:20:05;5.70;83.80
9057;DHT22;4563;54.756;9.400;2024-02-26T03:22:34;5.70;83.80
9057;DHT22;4563;54.756;9.400;2024-02-26T03:25:00;5.70;83.80
9057;DHT22;4563;54.756;9.400;2024-02-26T03:27:27;5.70;83.80
9057;DHT22;4563;54.756;9.400;2024-02-26T03:29:55;5.70;83.80
9057;DHT22;4563;54.756;9.400;2024-02-26T03:32:22;5.70;83.80
9057;DHT22;4563;54.756;9.400;2024-02-26T03:34:49;5.70;83.80
9057;DHT22;4563;54.756;9.400;2024-02-26T03:37:19;5.70;83.80
9057;DHT22;4563;54.756;9.400;2024-02-26T03:39:46;5.70;83.80
9057;DHT22;4563;54.756;9.400;2024-02-26T03:42:13;5.70;83.90
9057;DHT22;4563;54.756;9.400;2024-02-26T03:44:39;5.70;83.90
9057;DHT22;4563;54.756;9.400;2024-02-26T03:47:09;5.70;83.90
9057;DHT22;4563;54.756;9.400;2024-02-26T03:49:36;5.80;84.00
9057;DHT22;4563;54.756;9.400;2024-02-26T03:52:03;5.70;83.90
9057;DHT22;4563;54.756;9.400;2024-02-26T03:54:30;5.70;83.90
9057;DHT22;4563;54.756;9.400;2024-02-26T03:56:56;5.80;84.00
9057;DHT22;4563;54.756;9.400;2024-02-26T03:59:23;5.80;84.10
9057;DHT22;4563;54.756;9.400;2024-02-26T04:01:50;5.80;84.10
9057;DHT22;4563;54.756;9.400;2024-02-26T04:04:18;5.80;84.10
9057;DHT22;4563;54.756;9.400;2024-02-26T04:06:45;5.80;84.10
9057;DHT22;4563;54.756;9.400;2024-02-26T04:09:13;5.80;84.10
9057;DHT22;4563;54.756;9.400;2024-02-26T04:11:40;5.80;84.20
9057;DHT22;4563;54.756;9.400;2024-02-26T04:14:08;5.80;84.10
9057;DHT22;4563;54.756;9.400;2024-02-26T04:16:37;5.80;84.20
9057;DHT22;4563;54.756;9.400;2024-02-26T04:19:04;5.80;84.20
9057;DHT22;4563;54.756;9.400;2024-02-26T04:21:33;5.80;84.20
9057;DHT22;4563;54.756;9.400;2024-02-26T04:24:00;5.80;84.20
9057;DHT22;4563;54.756;9.400;2024-02-26T04:26:28;5.80;84.20
9057;DHT22;4563;54.756;9.400;2024-02-26T04:28:54;5.80;84.20
9057;DHT22;4563;54.756;9.400;2024-02-26T04:31:21;5.80;84.30
9057;DHT22;4563;54.756;9.400;2024-02-26T04:33:48;5.80;84.20
9057;DHT22;4563;54.756;9.400;2024-02-26T04:36:15;5.80;84.20
9057;DHT22;4563;54.756;9.400;2024-02-26T04:38:43;5.80;84.30
9057;DHT22;4563;54.756;9.400;2024-02-26T04:41:11;5.80;84.30
9057;DHT22;4563;54.756;9.400;2024-02-26T04:43:38;5.90;84.40
9057;DHT22;4563;54.756;9.400;2024-02-26T04:46:07;5.90;84.40
9057;DHT22;4563;54.756;9.400;2024-02-26T04:48:34;5.90;84.40
9057;DHT22;4563;54.756;9.400;2024-02-26T04:51:00;5.90;84.40
9057;DHT22;4563;54.756;9.400;2024-02-26T04:53:27;5.90;84.50
9057;DHT22;4563;54.756;9.400;2024-02-26T04:55:56;5.90;84.50
9057;DHT22;4563;54.756;9.400;2024-02-26T04:58:22;5.90;84.50
9057;DHT22;4563;54.756;9.400;2024-02-26T05:00:49;5.90;84.50
9057;DHT22;4563;54.756;9.400;2024-02-26T05:03:16;6.00;84.60
9057;DHT22;4563;54.756;9.400;2024-02-26T05:05:43;6.00;85.30
9057;DHT22;4563;54.756;9.400;2024-02-26T05:08:10;6.00;84.50
9057;DHT22;4563;54.756;9.400;2024-02-26T05:10:37;5.90;84.50
9057;DHT22;4563;54.756;9.400;2024-02-26T05:13:07;6.00;84.60
9057;DHT22;4563;54.756;9.400;2024-02-26T05:15:34;6.00;84.60
9057;DHT22;4563;54.756;9.400;2024-02-26T05:18:01;6.00;84.60
9057;DHT22;4563;54.756;9.400;2024-02-26T05:20:28;6.00;84.60
9057;DHT22;4563;54.756;9.400;2024-02-26T05:22:54;6.00;84.60
9057;DHT22;4563;54.756;9.400;2024-02-26T05:25:23;6.00;84.60
9057;DHT22;4563;54.756;9.400;2024-02-26T05:27:50;6.10;84.70
9057;DHT22;4563;54.756;9.400;2024-02-26T05:30:20;6.00;84.60
9057;DHT22;4563;54.756;9.400;2024-02-26T05:32:47;6.10;84.70
9057;DHT22;4563;54.756;9.400;2024-02-26T05:35:14;6.10;84.70
9057;DHT22;4563;54.756;9.400;2024-02-26T05:37:41;6.10;84.80
9057;DHT22;4563;54.756;9.400;2024-02-26T05:40:09;6.10;84.70
9057;DHT22;4563;54.756;9.400;2024-02-26T05:42:35;6.10;84.70
9057;DHT22;4563;54.756;9.400;2024-02-26T05:45:01;6.10;84.70
9057;DHT22;4563;54.756;9.400;2024-02-26T05:47:33;6.20;84.90
9057;DHT22;4563;54.756;9.400;2024-02-26T05:50:00;6.20;84.90
9057;DHT22;4563;54.756;9.400;2024-02-26T05:52:26;6.20;84.90
9057;DHT22;4563;54.756;9.400;2024-02-26T05:54:54;6.20;84.90
9057;DHT22;4563;54.756;9.400;2024-02-26T05:57:21;6.20;84.90
9057;DHT22;4563;54.756;9.400;2024-02-26T05:59:48;6.20;84.90
9057;DHT22;4563;54.756;9.400;2024-02-26T06:02:15;6.20;84.90
9057;DHT22;4563;54.756;9.400;2024-02-26T06:04:43;6.20;84.90
9057;DHT22;4563;54.756;9.400;2024-02-26T06:07:09;6.20;84.90
9057;DHT22;4563;54.756;9.400;2024-02-26T06:09:36;6.30;85.00
9057;DHT22;4563;54.756;9.400;2024-02-26T06:12:03;6.20;84.90
9057;DHT22;4563;54.756;9.400;2024-02-26T06:14:30;6.20;84.90
9057;DHT22;4563;54.756;9.400;2024-02-26T06:16:57;6.20;84.90
9057;DHT22;4563;54.756;9.400;2024-02-26T06:19:24;6.20;84.90
9057;DHT22;4563;54.756;9.400;2024-02-26T06:21:52;6.30;85.00
9057;DHT22;4563;54.756;9.400;2024-02-26T06:24:18;6.30;85.00
9057;DHT22;4563;54.756;9.400;2024-02-26T06:26:46;6.30;85.00
9057;DHT22;4563;54.756;9.400;2024-02-26T06:29:13;6.30;85.00
9057;DHT22;4563;54.756;9.400;2024-02-26T06:31:40;6.30;85.00
9057;DHT22;4563;54.756;9.400;2024-02-26T06:34:07;6.30;85.00
9057;DHT22;4563;54.756;9.400;2024-02-26T06:36:33;6.30;85.00
9057;DHT22;4563;54.756;9.400;2024-02-26T06:39:02;6.30;85.00
9057;DHT22;4563;54.756;9.400;2024-02-26T06:41:31;6.30;85.00
9057;DHT22;4563;54.756;9.400;2024-02-26T06:43:57;6.30;85.00
9057;DHT22;4563;54.756;9.400;2024-02-26T06:46:24;6.30;85.00
9057;DHT22;4563;54.756;9.400;2024-02-26T06:48:51;6.30;85.00
9057;DHT22;4563;54.756;9.400;2024-02-26T06:51:19;6.40;85.10
9057;DHT22;4563;54.756;9.400;2024-02-26T06:53:45;6.30;85.00
9057;DHT22;4563;54.756;9.400;2024-02-26T06:56:13;6.40;85.10
9057;DHT22;4563;54.756;9.400;2024-02-26T06:58:40;6.40;85.10
9057;DHT22;4563;54.756;9.400;2024-02-26T07:01:07;6.40;85.10
9057;DHT22;4563;54.756;9.400;2024-02-26T07:03:34;6.40;85.10
9057;DHT22;4563;54.756;9.400;2024-02-26T07:06:01;6.40;85.10
9057;DHT22;4563;54.756;9.400;2024-02-26T07:08:28;6.40;85.00
9057;DHT22;4563;54.756;9.400;2024-02-26T07:10:55;6.40;85.00
9057;DHT22;4563;54.756;9.400;2024-02-26T07:13:23;6.40;85.00
9057;DHT22;4563;54.756;9.400;2024-02-26T07:15:50;6.40;85.00
9057;DHT22;4563;54.756;9.400;2024-02-26T07:18:17;6.40;85.00
9057;DHT22;4563;54.756;9.400;2024-02-26T07:20:45;6.40;85.00
9057;DHT22;4563;54.756;9.400;2024-02-26T07:23:11;6.50;85.10
9057;DHT22;4563;54.756;9.400;2024-02-26T07:25:38;6.50;85.20
9057;DHT22;4563;54.756;9.400;2024-02-26T07:28:05;6.50;85.20
9057;DHT22;4563;54.756;9.400;2024-02-26T07:30:33;6.40;85.10
9057;DHT22;4563;54.756;9.400;2024-02-26T07:33:00;6.40;85.00
9057;DHT22;4563;54.756;9.400;2024-02-26T07:35:27;6.40;85.10
9057;DHT22;4563;54.756;9.400;2024-02-26T07:37:54;6.50;85.20
9057;DHT22;4563;54.756;9.400;2024-02-26T07:40:20;6.50;85.20
9057;DHT22;4563;54.756;9.400;2024-02-26T07:42:47;6.50;85.20
9057;DHT22;4563;54.756;9.400;2024-02-26T07:45:14;6.40;85.10
9057;DHT22;4563;54.756;9.400;2024-02-26T07:47:46;6.40;85.20
9057;DHT22;4563;54.756;9.400;2024-02-26T07:50:13;6.50;85.30
9057;DHT22;4563;54.756;9.400;2024-02-26T07:52:40;6.50;85.40
9057;DHT22;4563;54.756;9.400;2024-02-26T07:55:07;6.50;85.30
9057;DHT22;4563;54.756;9.400;2024-02-26T07:57:34;6.50;85.30
9057;DHT22;4563;54.756;9.400;2024-02-26T08:00:01;6.50;85.30
9057;DHT22;4563;54.756;9.400;2024-02-26T08:02:28;6.50;85.40
9057;DHT22;4563;54.756;9.400;2024-02-26T08:04:56;6.50;85.40
9057;DHT22;4563;54.756;9.400;2024-02-26T08:07:23;6.50;85.40
9057;DHT22;4563;54.756;9.400;2024-02-26T08:09:50;6.50;85.40
9057;DHT22;4563;54.756;9.400;2024-02-26T08:12:17;6.50;85.50
9057;DHT22;4563;54.756;9.400;2024-02-26T08:14:44;6.50;85.50
9057;DHT22;4563;54.756;9.400;2024-02-26T08:17:11;6.50;85.50
9057;DHT22;4563;54.756;9.400;2024-02-26T08:19:37;6.50;85.50
9057;DHT22;4563;54.756;9.400;2024-02-26T08:22:05;6.60;85.60
9057;DHT22;4563;54.756;9.400;2024-02-26T08:24:32;6.60;85.60
9057;DHT22;4563;54.756;9.400;2024-02-26T08:26:59;6.60;85.60
9057;DHT22;4563;54.756;9.400;2024-02-26T08:29:26;6.60;85.70
9057;DHT22;4563;54.756;9.400;2024-02-26T08:31:52;6.60;85.70
9057;DHT22;4563;54.756;9.400;2024-02-26T08:34:19;6.70;85.80
9057;DHT22;4563;54.756;9.400;2024-02-26T08:36:46;6.70;85.80
9057;DHT22;4563;54.756;9.400;2024-02-26T08:39:15;6.70;85.80
9057;DHT22;4563;54.756;9.400;2024-02-26T08:41:43;6.70;85.90
9057;DHT22;4563;54.756;9.400;2024-02-26T08:44:09;6.70;85.90
9057;DHT22;4563;54.756;9.400;2024-02-26T08:46:36;6.80;86.00
9057;DHT22;4563;54.756;9.400;2024-02-26T08:49:03;6.80;86.00
9057;DHT22;4563;54.756;9.400;2024-02-26T08:51:30;6.80;86.70
9057;DHT22;4563;54.756;9.400;2024-02-26T08:53:57;6.90;86.10
9057;DHT22;4563;54.756;9.400;2024-02-26T08:56:25;6.80;86.00
9057;DHT22;4563;54.756;9.400;2024-02-26T08:58:52;6.90;86.00
9057;DHT22;4563;54.756;9.400;2024-02-26T09:01:22;6.90;86.10
9057;DHT22;4563;54.756;9.400;2024-02-26T09:03:49;6.90;86.10
9057;DHT22;4563;54.756;9.400;2024-02-26T09:06:16;7.00;86.20
9057;DHT22;4563;54.756;9.400;2024-02-26T09:08:42;7.00;86.20
9057;DHT22;4563;54.756;9.400;2024-02-26T09:11:09;7.00;86.20
9057;DHT22;4563;54.756;9.400;2024-02-26T09:13:37;7.00;86.20
9057;DHT22;4563;54.756;9.400;2024-02-26T09:16:05;7.10;86.40
9057;DHT22;4563;54.756;9.400;2024-02-26T09:18:32;7.10;86.40
9057;DHT22;4563;54.756;9.400;2024-02-26T09:20:59;7.10;86.30
9057;DHT22;4563;54.756;9.400;2024-02-26T09:23:26;7.10;86.30
9057;DHT22;4563;54.756;9.400;2024-02-26T09:25:52;7.20;86.40
9057;DHT22;4563;54.756;9.400;2024-02-26T09:28:19;7.20;86.50
9057;DHT22;4563;54.756;9.400;2024-02-26T09:30:47;7.20;86.40
9057;DHT22;4563;54.756;9.400;2024-02-26T09:33:15;7.30;86.50
9057;DHT22;4563;54.756;9.400;2024-02-26T09:35:42;7.30;86.50
9057;DHT22;4563;54.756;9.400;2024-02-26T09:38:09;7.30;86.40
9057;DHT22;4563;54.756;9.400;2024-02-26T09:40:36;7.30;86.50
9057;DHT22;4563;54.756;9.400;2024-02-26T09:43:05;7.30;86.50
9057;DHT22;4563;54.756;9.400;2024-02-26T09:45:33;7.40;86.50
9057;DHT22;4563;54.756;9.400;2024-02-26T09:48:03;7.40;86.60
9057;DHT22;4563;54.756;9.400;2024-02-26T09:50:31;7.40;86.50
9057;DHT22;4563;54.756;9.400;2024-02-26T09:52:58;7.40;86.50
9057;DHT22;4563;54.756;9.400;2024-02-26T09:55:28;7.40;86.50
9057;DHT22;4563;54.756;9.400;2024-02-26T09:57:56;7.40;86.50
9057;DHT22;4563;54.756;9.400;2024-02-26T10:00:25;7.50;86.60
9057;DHT22;4563;54.756;9.400;2024-02-26T10:02:55;7.50;86.60
9057;DHT22;4563;54.756;9.400;2024-02-26T10:05:25;7.50;86.60
9057;DHT22;4563;54.756;9.400;2024-02-26T10:07:52;7.50;86.50
9057;DHT22;4563;54.756;9.400;2024-02-26T10:10:22;7.50;86.50
9057;DHT22;4563;54.756;9.400;2024-02-26T10:12:49;7.50;86.50
9057;DHT22;4563;54.756;9.400;2024-02-26T10:15:16;7.50;86.50
9057;DHT22;4563;54.756;9.400;2024-02-26T10:17:43;7.60;86.70
9057;DHT22;4563;54.756;9.400;2024-02-26T10:20:13;7.60;86.70
9057;DHT22;4563;54.756;9.400;2024-02-26T10:22:42;7.60;86.70
9057;DHT22;4563;54.756;9.400;2024-02-26T10:25:09;7.60;86.60
9057;DHT22;4563;54.756;9.400;2024-02-26T10:27:36;7.70;86.70
9057;DHT22;4563;54.756;9.400;2024-02-26T10:30:04;7.70;86.70
9057;DHT22;4563;54.756;9.400;2024-02-26T10:32:31;7.70;86.70
9057;DHT22;4563;54.756;9.400;2024-02-26T10:34:58;7.80;86.80
9057;DHT22;4563;54.756;9.400;2024-02-26T10:37:26;7.70;86.60
9057;DHT22;4563;54.756;9.400;2024-02-26T10:39:54;7.80;86.70
9057;DHT22;4563;54.756;9.400;2024-02-26T10:42:20;7.80;86.60
9057;DHT22;4563;54.756;9.400;2024-02-26T10:44:47;7.80;86.60
9057;DHT22;4563;54.756;9.400;2024-02-26T10:47:15;7.90;86.70
9057;DHT22;4563;54.756;9.400;2024-02-26T10:49:45;7.90;86.60
9057;DHT22;4563;54.756;9.400;2024-02-26T10:52:14;7.90;86.60
9057;DHT22;4563;54.756;9.400;2024-02-26T10:54:41;7.90;86.50
9057;DHT22;4563;54.756;9.400;2024-02-26T10:57:11;8.00;86.50
9057;DHT22;4563;54.756;9.400;2024-02-26T10:59:39;8.00;86.50
9057;DHT22;4563;54.756;9.400;2024-02-26T11:02:10;8.00;86.40
9057;DHT22;4563;54.756;9.400;2024-02-26T11:04:37;8.00;86.30
9057;DHT22;4563;54.756;9.400;2024-02-26T11:07:05;8.00;86.30
9057;DHT22;4563;54.756;9.400;2024-02-26T11:09:34;8.00;86.20
9057;DHT22;4563;54.756;9.400;2024-02-26T11:12:02;8.10;86.30
9057;DHT22;4563;54.756;9.400;2024-02-26T11:14:38;8.10;86.30
9057;DHT22;4563;54.756;9.400;2024-02-26T11:17:07;8.10;86.20
9057;DHT22;4563;54.756;9.400;2024-02-26T11:19:36;8.10;86.10
9057;DHT22;4563;54.756;9.400;2024-02-26T11:22:04;8.20;86.20
9057;DHT22;4563;54.756;9.400;2024-02-26T11:24:31;8.20;86.20
9057;DHT22;4563;54.756;9.400;2024-02-26T11:27:00;8.20;86.10
9057;DHT22;4563;54.756;9.400;2024-02-26T11:29:29;8.20;86.00
9057;DHT22;4563;54.756;9.400;2024-02-26T11:32:00;8.20;86.00
9057;DHT22;4563;54.756;9.400;2024-02-26T11:34:27;8.20;85.90
9057;DHT22;4563;54.756;9.400;2024-02-26T11:36:55;8.30;86.00
9057;DHT22;4563;54.756;9.400;2024-02-26T11:39:22;8.30;85.80
9057;DHT22;4563;54.756;9.400;2024-02-26T11:41:50;8.30;85.80
9057;DHT22;4563;54.756;9.400;2024-02-26T11:44:28;8.30;85.70
9057;DHT22;4563;54.756;9.400;2024-02-26T11:46:56;8.30;85.60
9057;DHT22;4563;54.756;9.400;2024-02-26T11:49:32;8.30;85.60
9057;DHT22;4563;54.756;9.400;2024-02-26T11:51:59;8.40;85.60
9057;DHT22;4563;54.756;9.400;2024-02-26T11:54:46;8.40;86.20
9057;DHT22;4563;54.756;9.400;2024-02-26T11:57:23;8.40;85.40
9057;DHT22;4563;54.756;9.400;2024-02-26T11:59:50;8.40;85.40
9057;DHT22;4563;54.756;9.400;2024-02-26T12:02:44;8.40;85.40
9057;DHT22;4563;54.756;9.400;2024-02-26T12:05:14;8.50;85.50
9057;DHT22;4563;54.756;9.400;2024-02-26T12:07:44;8.40;85.30
9057;DHT22;4563;54.756;9.400;2024-02-26T12:10:25;8.50;85.20
9057;DHT22;4563;54.756;9.400;2024-02-26T12:12:58;8.50;85.10
9057;DHT22;4563;54.756;9.400;2024-02-26T12:15:30;8.50;85.00
9057;DHT22;4563;54.756;9.400;2024-02-26T12:17:58;8.50;84.90
9057;DHT22;4563;54.756;9.400;2024-02-26T12:20:28;8.50;84.90
9057;DHT22;4563;54.756;9.400;2024-02-26T12:22:54;8.50;84.80
9057;DHT22;4563;54.756;9.400;2024-02-26T12:25:24;8.50;84.80
9057;DHT22;4563;54.756;9.400;2024-02-26T12:27:52;8.60;85.60
9057;DHT22;4563;54.756;9.400;2024-02-26T12:30:19;8.50;84.60
9057;DHT22;4563;54.756;9.400;2024-02-26T12:32:46;8.60;84.60
9057;DHT22;4563;54.756;9.400;2024-02-26T12:35:13;8.60;84.60
9057;DHT22;4563;54.756;9.400;2024-02-26T12:37:42;8.60;84.50
9057;DHT22;4563;54.756;9.400;2024-02-26T12:40:10;8.60;84.50
9057;DHT22;4563;54.756;9.400;2024-02-26T12:42:37;8.60;84.50
9057;DHT22;4563;54.756;9.400;2024-02-26T12:45:07;8.60;84.40
9057;DHT22;4563;54.756;9.400;2024-02-26T12:47:36;8.70;84.50
9057;DHT22;4563;54.756;9.400;2024-02-26T12:50:03;8.70;84.50
9057;DHT22;4563;54.756;9.400;2024-02-26T12:52:31;8.70;84.50
9057;DHT22;4563;54.756;9.400;2024-02-26T12:55:01;8.70;84.60
9057;DHT22;4563;54.756;9.400;2024-02-26T12:57:28;8.80;84.60
9057;DHT22;4563;54.756;9.400;2024-02-26T12:59:56;8.80;84.60
9057;DHT22;4563;54.756;9.400;2024-02-26T13:02:23;8.80;84.60
9057;DHT22;4563;54.756;9.400;2024-02-26T13:04:50;8.90;85.40
9057;DHT22;4563;54.756;9.400;2024-02-26T13:07:17;8.90;84.60
9057;DHT22;4563;54.756;9.400;2024-02-26T13:09:44;9.00;84.70
9057;DHT22;4563;54.756;9.400;2024-02-26T13:12:12;9.10;84.70
9057;DHT22;4563;54.756;9.400;2024-02-26T13:14:40;9.10;84.70
9057;DHT22;4563;54.756;9.400;2024-02-26T13:17:07;9.20;84.70
9057;DHT22;4563;54.756;9.400;2024-02-26T13:19:33;9.20;84.60
9057;DHT22;4563;54.756;9.400;2024-02-26T13:22:04;9.30;84.80
9057;DHT22;4563;54.756;9.400;2024-02-26T13:24:31;9.30;84.60
9057;DHT22;4563;54.756;9.400;2024-02-26T13:26:58;9.40;84.50
9057;DHT22;4563;54.756;9.400;2024-02-26T13:29:27;9.50;84.50
9057;DHT22;4563;54.756;9.400;2024-02-26T13:31:55;9.50;84.30
9057;DHT22;4563;54.756;9.400;2024-02-26T13:34:26;9.60;84.20
9057;DHT22;4563;54.756;9.400;2024-02-26T13:36:53;9.60;84.10
9057;DHT22;4563;54.756;9.400;2024-02-26T13:39:23;9.60;83.90
9057;DHT22;4563;54.756;9.400;2024-02-26T13:41:51;9.70;83.80
9057;DHT22;4563;54.756;9.400;2024-02-26T13:44:18;9.70;83.80
9057;DHT22;4563;54.756;9.400;2024-02-26T13:46:47;9.70;83.70
9057;DHT22;4563;54.756;9.400;2024-02-26T13:49:15;9.80;83.70
9057;DHT22;4563;54.756;9.400;2024-02-26T13:51:42;9.80;83.60
9057;DHT22;4563;54.756;9.400;2024-02-26T13:54:09;9.90;83.60
9057;DHT22;4563;54.756;9.400;2024-02-26T13:56:36;9.90;83.40
9057;DHT22;4563;54.756;9.400;2024-02-26T13:59:03;9.90;83.20
9057;DHT22;4563;54.756;9.400;2024-02-26T14:01:30;10.00;82.10
9057;DHT22;4563;54.756;9.400;2024-02-26T14:04:00;10.00;82.00
9057;DHT22;4563;54.756;9.400;2024-02-26T14:06:27;10.10;82.00
9057;DHT22;4563;54.756;9.400;2024-02-26T14:08:54;10.10;82.00
9057;DHT22;4563;54.756;9.400;2024-02-26T14:11:21;10.10;81.80
9057;DHT22;4563;54.756;9.400;2024-02-26T14:13:48;10.20;81.70
9057;DHT22;4563;54.756;9.400;2024-02-26T14:16:14;10.20;81.40
9057;DHT22;4563;54.756;9.400;2024-02-26T14:18:42;10.20;81.30
9057;DHT22;4563;54.756;9.400;2024-02-26T14:21:12;10.20;81.10
9057;DHT22;4563;54.756;9.400;2024-02-26T14:23:39;10.20;80.90
9057;DHT22;4563;54.756;9.400;2024-02-26T14:26:06;10.30;80.70
9057;DHT22;4563;54.756;9.400;2024-02-26T14:28:32;10.30;80.60
9057;DHT22;4563;54.756;9.400;2024-02-26T14:30:59;10.30;80.40
9057;DHT22;4563;54.756;9.400;2024-02-26T14:33:26;10.30;80.30
9057;DHT22;4563;54.756;9.400;2024-02-26T14:35:53;10.30;80.20
9057;DHT22;4563;54.756;9.400;2024-02-26T14:38:21;10.30;80.10
9057;DHT22;4563;54.756;9.400;2024-02-26T14:40:49;10.30;80.10
9057;DHT22;4563;54.756;9.400;2024-02-26T14:43:16;10.30;80.00
9057;DHT22;4563;54.756;9.400;2024-02-26T14:45:42;10.30;79.90
9057;DHT22;4563;54.756;9.400;2024-02-26T14:48:09;10.30;79.70
9057;DHT22;4563;54.756;9.400;2024-02-26T14:50:36;10.30;79.60
9057;DHT22;4563;54.756;9.400;2024-02-26T14:53:03;10.30;79.50
9057;DHT22;4563;54.756;9.400;2024-02-26T14:55:32;10.30;79.50
9057;DHT22;4563;54.756;9.400;2024-02-26T14:57:59;10.20;79.30
9057;DHT22;4563;54.756;9.400;2024-02-26T15:00:26;10.20;79.20
9057;DHT22;4563;54.756;9.400;2024-02-26T15:02:53;10.20;79.10
9057;DHT22;4563;54.756;9.400;2024-02-26T15:05:21;10.20;79.10
9057;DHT22;4563;54.756;9.400;2024-02-26T15:07:48;10.20;79.00
9057;DHT22;4563;54.756;9.400;2024-02-26T15:10:14;10.20;79.00
9057;DHT22;4563;54.756;9.400;2024-02-26T15:12:43;10.10;78.90
9057;DHT22;4563;54.756;9.400;2024-02-26T15:15:09;10.10;78.90
9057;DHT22;4563;54.756;9.400;2024-02-26T15:17:36;10.10;78.80
9057;DHT22;4563;54.756;9.400;2024-02-26T15:20:04;10.10;78.80
9057;DHT22;4563;54.756;9.400;2024-02-26T15:22:33;10.10;78.80
9057;DHT22;4563;54.756;9.400;2024-02-26T15:24:59;10.00;78.70
9057;DHT22;4563;54.756;9.400;2024-02-26T15:27:26;10.00;78.70
9057;DHT22;4563;54.756;9.400;2024-02-26T15:29:54;10.00;78.70
9057;DHT22;4563;54.756;9.400;2024-02-26T15:32:23;9.90;79.70
9057;DHT22;4563;54.756;9.400;2024-02-26T15:34:52;9.90;79.70
9057;DHT22;4563;54.756;9.400;2024-02-26T15:37:18;9.90;79.60
9057;DHT22;4563;54.756;9.400;2024-02-26T15:39:45;9.90;79.60
9057;DHT22;4563;54.756;9.400;2024-02-26T15:42:12;9.90;79.60
9057;DHT22;4563;54.756;9.400;2024-02-26T15:44:39;9.80;79.50
9057;DHT22;4563;54.756;9.400;2024-02-26T15:47:07;9.80;79.50
9057;DHT22;4563;54.756;9.400;2024-02-26T15:49:34;9.80;79.40
9057;DHT22;4563;54.756;9.400;2024-02-26T15:52:00;9.80;79.40
9057;DHT22;4563;54.756;9.400;2024-02-26T15:54:27;9.70;79.30
9057;DHT22;4563;54.756;9.400;2024-02-26T15:56:54;9.70;79.30
9057;DHT22;4563;54.756;9.400;2024-02-26T15:59:20;9.70;79.30
9057;DHT22;4563;54.756;9.400;2024-02-26T16:01:48;9.70;79.30
9057;DHT22;4563;54.756;9.400;2024-02-26T16:04:16;9.70;79.30
9057;DHT22;4563;54.756;9.400;2024-02-26T16:06:44;9.60;79.20
9057;DHT22;4563;54.756;9.400;2024-02-26T16:09:12;9.60;79.20
9057;DHT22;4563;54.756;9.400;2024-02-26T16:11:38;9.60;79.20
9057;DHT22;4563;54.756;9.400;2024-02-26T16:14:11;9.50;79.10
9057;DHT22;4563;54.756;9.400;2024-02-26T16:16:44;9.50;79.30
9057;DHT22;4563;54.756;9.400;2024-02-26T16:19:15;9.50;79.30